Time;durP1;ratioP1;P1;durP2;ratioP2;P2;SDS_P1;SDS_P2;PMS_P1;PMS_P2;Temp;Humidity;BMP_temperature;BMP_pressure;BME280_temperature;BME280_humidity;BME280_pressure;Samples;Min_cycle;Max_cycle;Signal;HPM_P1;HPM_P2
2023/04/21 00:00:53;;;;;;;6.80;3.70;;;;;;;11.71;57.99;101602.72;4932668;28;97604;-51
2023/04/21 00:03:20;;;;;;;8.30;4.23;;;;;;;11.69;57.97;101598.94;4935260;28;97145;-52
2023/04/21 00:05:47;;;;;;;4.67;4.13;;;;;;;11.68;57.94;101597.44;4934925;28;96727;-51
2023/04/21 00:08:12;;;;;;;5.43;3.80;;;;;;;11.66;57.92;101595.13;4935010;28;96718;-51
2023/04/21 00:10:38;;;;;;;8.80;4.70;;;;;;;11.66;57.89;101606.16;4936359;28;97683;-52
2023/04/21 00:13:03;;;;;;;5.40;4.00;;;;;;;11.65;58.04;101590.84;4938088;28;97348;-51
2023/04/21 00:15:28;;;;;;;5.53;4.10;;;;;;;11.61;57.80;101595.78;4936440;28;97284;-52
2023/04/21 00:17:54;;;;;;;4.53;4.10;;;;;;;11.62;57.96;101591.03;4936216;28;96912;-51
2023/04/21 00:20:20;;;;;;;5.33;4.37;;;;;;;11.60;58.00;101583.22;4934225;28;97323;-52
2023/04/21 00:22:45;;;;;;;5.33;4.57;;;;;;;11.58;57.95;101585.69;4938485;28;98303;-52
2023/04/21 00:25:11;;;;;;;5.77;4.20;;;;;;;11.55;58.17;101581.16;4932821;28;97175;-52
2023/04/21 00:27:36;;;;;;;5.20;4.00;;;;;;;11.50;58.12;101579.06;4934496;28;96719;-52
2023/04/21 00:30:02;;;;;;;3.77;3.47;;;;;;;11.51;58.07;101577.06;4931603;28;98061;-52
2023/04/21 00:32:27;;;;;;;7.40;4.33;;;;;;;11.47;58.31;101566.22;4933961;28;97156;-51
2023/04/21 00:34:52;;;;;;;5.83;4.60;;;;;;;11.46;58.20;101575.75;4936084;28;96961;-51
2023/04/21 00:37:18;;;;;;;8.00;4.90;;;;;;;11.45;58.28;101576.19;4939060;28;96937;-52
2023/04/21 00:39:43;;;;;;;5.13;4.57;;;;;;;11.43;58.25;101562.13;4935582;28;97348;-51
2023/04/21 00:42:08;;;;;;;8.70;4.30;;;;;;;11.40;58.45;101565.88;4937220;28;97041;-52
2023/04/21 00:44:34;;;;;;;5.83;4.53;;;;;;;11.38;58.52;101560.81;4936915;28;96988;-51
2023/04/21 00:46:59;;;;;;;4.83;4.40;;;;;;;11.37;58.31;101562.06;4935392;28;97113;-52
2023/04/21 00:49:25;;;;;;;6.93;4.80;;;;;;;11.35;58.35;101569.28;4937755;28;96963;-52
2023/04/21 00:51:51;;;;;;;4.20;3.80;;;;;;;11.35;58.39;101583.06;4934862;28;97108;-52
2023/04/21 00:54:17;;;;;;;5.97;4.77;;;;;;;11.33;58.68;101559.47;4934724;28;97958;-51
2023/04/21 00:56:43;;;;;;;11.03;4.53;;;;;;;11.31;58.63;101556.44;4934433;28;97282;-52
2023/04/21 00:59:08;;;;;;;5.37;4.40;;;;;;;11.34;58.51;101554.72;4935077;28;97922;-51
2023/04/21 01:01:35;;;;;;;5.40;4.90;;;;;;;11.35;58.82;101552.75;4935662;28;97830;-52
2023/04/21 01:04:02;;;;;;;4.13;3.70;;;;;;;11.34;58.76;101554.72;4932695;28;96809;-52
2023/04/21 01:06:28;;;;;;;7.47;4.47;;;;;;;11.32;58.93;101557.22;4932942;28;96807;-52
2023/04/21 01:08:54;;;;;;;5.03;4.20;;;;;;;11.30;58.54;101552.19;4933923;28;97120;-52
2023/04/21 01:11:20;;;;;;;8.43;5.00;;;;;;;11.28;58.93;101542.88;4936002;28;97035;-52
2023/04/21 01:13:46;;;;;;;4.93;4.40;;;;;;;11.29;58.58;101539.63;4934860;28;96827;-52
2023/04/21 01:16:16;;;;;;;5.20;4.23;;;;;;;11.25;59.33;101536.31;4933479;28;96980;-52
2023/04/21 01:18:43;;;;;;;4.77;4.23;;;;;;;11.17;58.53;101537.94;4936734;28;97882;-51
2023/04/21 01:21:08;;;;;;;4.90;4.40;;;;;;;11.15;59.01;101529.38;4934107;28;97754;-52
2023/04/21 01:23:34;;;;;;;8.00;4.40;;;;;;;11.16;58.92;101533.66;4935853;28;96737;-51
2023/04/21 01:25:59;;;;;;;5.30;4.00;;;;;;;11.11;58.93;101534.31;4934073;28;97227;-52
2023/04/21 01:28:25;;;;;;;5.30;3.53;;;;;;;11.12;58.86;101535.06;4935157;28;96799;-52
2023/04/21 01:30:51;;;;;;;5.53;4.13;;;;;;;11.11;59.07;101530.81;4935908;28;97485;-52
2023/04/21 01:33:18;;;;;;;5.70;4.10;;;;;;;11.10;58.83;101523.75;4934989;28;97067;-52
2023/04/21 01:35:44;;;;;;;4.50;3.47;;;;;;;11.05;59.01;101530.69;4936074;28;97492;-52
2023/04/21 01:38:09;;;;;;;6.73;4.07;;;;;;;11.09;58.91;101527.78;4936648;28;98061;-52
2023/04/21 01:40:35;;;;;;;4.30;3.67;;;;;;;11.07;58.76;101533.00;4933799;28;97313;-52
2023/04/21 01:43:02;;;;;;;6.07;4.37;;;;;;;11.05;59.23;101521.69;4936168;28;96978;-52
2023/04/21 01:45:28;;;;;;;5.03;3.73;;;;;;;11.08;58.95;101524.25;4936321;28;97240;-52
2023/04/21 01:47:53;;;;;;;5.60;3.90;;;;;;;11.07;58.72;101524.72;4933199;28;97144;-52
2023/04/21 01:50:19;;;;;;;4.67;3.50;;;;;;;11.02;59.06;101528.13;4935973;28;97342;-52
2023/04/21 01:52:44;;;;;;;7.20;4.50;;;;;;;11.02;58.93;101528.13;4935003;28;97861;-52
2023/04/21 01:55:10;;;;;;;6.20;4.20;;;;;;;10.98;59.21;101524.81;4934286;28;97339;-52
2023/04/21 01:57:35;;;;;;;3.90;3.53;;;;;;;10.99;59.11;101527.09;4934098;28;96868;-52
2023/04/21 02:00:01;;;;;;;4.20;3.70;;;;;;;10.95;58.98;101518.25;4934355;28;97330;-52
2023/04/21 02:02:27;;;;;;;8.20;4.80;;;;;;;10.93;59.00;101522.72;4933716;28;97292;-52
2023/04/21 02:04:52;;;;;;;4.40;3.57;;;;;;;10.89;59.26;101516.63;4932901;28;97130;-51
2023/04/21 02:07:18;;;;;;;9.13;4.73;;;;;;;10.86;59.21;101514.81;4933226;28;97125;-52
2023/04/21 02:09:43;;;;;;;4.50;3.93;;;;;;;10.85;59.06;101527.84;4934745;28;97127;-52
2023/04/21 02:12:08;;;;;;;4.30;3.90;;;;;;;10.81;59.61;101521.00;4936169;28;97127;-52
2023/04/21 02:14:36;;;;;;;5.43;3.97;;;;;;;10.80;59.16;101519.47;4936710;28;97085;-52
2023/04/21 02:17:02;;;;;;;5.30;3.90;;;;;;;10.81;59.31;101507.25;4931427;28;97307;-51
2023/04/21 02:19:27;;;;;;;4.93;3.97;;;;;;;10.79;59.35;101518.69;4934905;28;97224;-52
2023/04/21 02:21:53;;;;;;;8.03;3.93;;;;;;;10.80;59.42;101511.22;4933718;28;97141;-51
2023/04/21 02:24:18;;;;;;;5.33;4.00;;;;;;;10.81;59.25;101515.50;4932227;28;96909;-52
2023/04/21 02:26:43;;;;;;;3.67;3.37;;;;;;;10.81;59.67;101515.50;4933171;28;96958;-52
2023/04/21 02:29:09;;;;;;;4.93;3.70;;;;;;;10.82;59.40;101506.75;4936474;28;97685;-52
2023/04/21 02:31:34;;;;;;;5.73;3.80;;;;;;;10.82;59.43;101509.50;4934684;28;97178;-51
2023/04/21 02:34:00;;;;;;;5.60;3.77;;;;;;;10.85;59.24;101505.81;4936332;28;97256;-52
2023/04/21 02:36:28;;;;;;;3.60;3.30;;;;;;;10.84;59.69;101509.78;4937599;28;97463;-52
2023/04/21 02:38:54;;;;;;;9.83;3.27;;;;;;;10.87;59.40;101508.09;4931606;28;97778;-52
2023/04/21 02:41:19;;;;;;;3.63;3.33;;;;;;;10.88;59.47;101515.09;4934029;28;97307;-52
2023/04/21 02:43:44;;;;;;;5.90;3.57;;;;;;;10.89;59.43;101516.63;4935344;28;97659;-52
2023/04/21 02:46:10;;;;;;;3.90;3.57;;;;;;;10.87;59.55;101513.59;4935122;28;98434;-52
2023/04/21 02:48:35;;;;;;;3.73;3.43;;;;;;;10.89;59.37;101505.63;4933143;28;97152;-51
2023/04/21 02:51:01;;;;;;;5.30;3.83;;;;;;;10.84;59.28;101514.53;4932433;28;97409;-51
2023/04/21 02:53:26;;;;;;;7.37;3.33;;;;;;;10.83;59.71;101513.78;4931184;28;96740;-52
2023/04/21 02:55:51;;;;;;;4.47;3.53;;;;;;;10.86;59.50;101517.56;4932955;28;97986;-52
2023/04/21 02:58:17;;;;;;;6.33;3.20;;;;;;;10.88;59.60;101509.59;4932752;28;97376;-52
2023/04/21 03:00:42;;;;;;;5.97;3.37;;;;;;;10.86;59.43;101510.09;4931352;28;96977;-52
2023/04/21 03:03:08;;;;;;;4.83;2.90;;;;;;;10.88;59.44;101510.38;4935839;28;96602;-52
2023/04/21 03:05:33;;;;;;;3.77;3.37;;;;;;;10.88;59.33;101501.34;4932640;28;97258;-51
2023/04/21 03:07:59;;;;;;;6.83;3.70;;;;;;;10.86;59.65;101503.81;4932169;28;97142;-52
2023/04/21 03:10:24;;;;;;;4.93;3.70;;;;;;;10.88;59.42;101504.84;4930990;28;96997;-51
2023/04/21 03:12:49;;;;;;;8.00;3.60;;;;;;;10.90;59.56;101507.91;4933616;28;96870;-51
2023/04/21 03:15:15;;;;;;;4.73;3.50;;;;;;;10.88;59.43;101513.13;4933597;28;96682;-52
2023/04/21 03:17:41;;;;;;;4.30;3.50;;;;;;;10.88;59.38;101504.84;4933428;28;96637;-51
2023/04/21 03:20:08;;;;;;;4.07;3.77;;;;;;;10.88;59.72;101509.59;4932649;28;97156;-52
2023/04/21 03:22:34;;;;;;;3.57;3.27;;;;;;;10.86;59.50;101512.84;4933418;28;96929;-52
2023/04/21 03:25:00;;;;;;;5.93;3.30;;;;;;;10.85;59.32;101513.31;4933890;28;97807;-52
2023/04/21 03:27:25;;;;;;;4.10;3.50;;;;;;;10.86;59.48;101512.06;4933149;28;97070;-52
2023/04/21 03:29:50;;;;;;;4.77;3.47;;;;;;;10.83;59.35;101515.78;4932024;28;97008;-52
2023/04/21 03:32:16;;;;;;;7.20;4.00;;;;;;;10.83;59.46;101513.03;4936514;28;98092;-51
2023/04/21 03:34:41;;;;;;;5.70;3.47;;;;;;;10.82;59.51;101511.50;4934481;28;97853;-52
2023/04/21 03:37:07;;;;;;;5.17;3.57;;;;;;;10.81;59.40;101515.50;4932037;28;97167;-51
2023/04/21 03:39:32;;;;;;;4.50;3.77;;;;;;;10.81;59.45;101519.00;4932886;28;97051;-51
2023/04/21 03:41:57;;;;;;;4.00;3.10;;;;;;;10.79;59.31;101509.72;4934717;28;96872;-52
2023/04/21 03:44:28;;;;;;;6.97;4.07;;;;;;;10.77;59.87;101514.94;4932617;28;105315;-52
2023/04/21 03:46:54;;;;;;;4.23;3.53;;;;;;;10.75;59.62;101509.09;4935131;28;97098;-52
2023/04/21 03:49:20;;;;;;;5.77;3.83;;;;;;;10.74;59.32;101505.63;4943055;28;97372;-51
2023/04/21 03:51:45;;;;;;;6.83;3.67;;;;;;;10.74;59.31;101516.63;4935882;28;96809;-52
2023/04/21 03:54:11;;;;;;;5.50;4.13;;;;;;;10.72;59.50;101519.09;4935161;28;97334;-51
2023/04/21 03:56:36;;;;;;;4.80;3.73;;;;;;;10.74;59.25;101516.63;4936579;28;97106;-52
2023/04/21 03:59:02;;;;;;;3.87;3.40;;;;;;;10.72;59.26;101518.31;4935497;28;99458;-52
2023/04/21 04:01:27;;;;;;;4.33;3.90;;;;;;;10.72;59.29;101518.31;4936953;28;97245;-52
2023/04/21 04:03:53;;;;;;;6.23;3.53;;;;;;;10.69;59.36;101508.25;4933569;28;96675;-51
2023/04/21 04:06:18;;;;;;;7.53;3.40;;;;;;;10.67;59.56;101521.72;4936681;28;97103;-51
2023/04/21 04:08:43;;;;;;;4.67;3.80;;;;;;;10.64;59.44;101517.19;4935412;28;96894;-52
2023/04/21 04:11:09;;;;;;;5.00;3.80;;;;;;;10.63;59.44;101521.91;4938442;28;98026;-52
2023/04/21 04:13:34;;;;;;;6.87;4.10;;;;;;;10.65;59.27;101518.69;4935296;28;97840;-51
2023/04/21 04:16:00;;;;;;;4.83;3.80;;;;;;;10.65;59.25;101519.44;4936506;28;97021;-52
2023/04/21 04:18:25;;;;;;;5.20;3.43;;;;;;;10.66;59.23;101520.97;4933254;28;97195;-51
2023/04/21 04:20:50;;;;;;;4.27;2.90;;;;;;;10.67;59.41;101527.22;4939030;28;97631;-51
2023/04/21 04:23:16;;;;;;;3.33;3.00;;;;;;;10.66;59.31;101526.47;4934030;28;97353;-51
2023/04/21 04:25:41;;;;;;;4.67;3.43;;;;;;;10.63;59.11;101516.41;4935469;28;96846;-52
2023/04/21 04:28:08;;;;;;;4.60;3.53;;;;;;;10.62;59.17;101525.13;4933543;28;97238;-51
2023/04/21 04:30:34;;;;;;;4.27;3.87;;;;;;;10.64;59.25;101528.94;4936571;28;97048;-51
2023/04/21 04:32:59;;;;;;;4.37;3.70;;;;;;;10.69;59.11;101541.28;4934517;28;97542;-51
2023/04/21 04:35:25;;;;;;;3.77;3.47;;;;;;;10.69;58.99;101530.25;4949393;22;100004;-49
2023/04/21 04:37:51;;;;;;;7.80;3.20;;;;;;;10.71;59.21;101533.31;4955039;28;96728;-49
2023/04/21 04:40:16;;;;;;;3.40;3.10;;;;;;;10.72;59.03;101529.34;4953328;28;97261;-49
2023/04/21 04:42:42;;;;;;;6.57;4.03;;;;;;;10.68;59.12;101535.00;4956423;28;97461;-49
2023/04/21 04:45:08;;;;;;;12.30;4.00;;;;;;;10.65;59.07;101533.22;4956026;28;97298;-49
2023/04/21 04:47:36;;;;;;;4.70;3.70;;;;;;;10.65;59.16;101529.69;4952633;28;97203;-48
2023/04/21 04:50:03;;;;;;;6.57;3.93;;;;;;;10.63;59.13;101541.19;4953738;28;97054;-49
2023/04/21 04:52:28;;;;;;;10.60;3.97;;;;;;;10.67;59.19;101532.72;4953630;28;98977;-49
2023/04/21 04:54:54;;;;;;;7.57;3.57;;;;;;;10.67;59.05;101541.75;4953110;28;97163;-49
2023/04/21 04:57:19;;;;;;;9.60;4.00;;;;;;;10.59;59.22;101535.09;4952641;28;96978;-49
2023/04/21 04:59:45;;;;;;;5.93;3.73;;;;;;;10.54;59.41;101531.00;4954178;28;96994;-49
2023/04/21 05:02:11;;;;;;;5.00;4.00;;;;;;;10.51;59.37;101534.69;4953935;28;97194;-49
2023/04/21 05:04:36;;;;;;;4.67;3.90;;;;;;;10.46;59.41;101532.56;4953809;28;96923;-49
2023/04/21 05:07:02;;;;;;;6.00;3.87;;;;;;;10.46;59.56;101538.06;4952227;28;97351;-49
2023/04/21 05:09:27;;;;;;;4.87;4.00;;;;;;;10.47;59.55;101536.09;4951291;28;97582;-49
2023/04/21 05:11:52;;;;;;;5.53;4.17;;;;;;;10.47;59.61;101534.13;4951673;28;97660;-49
2023/04/21 05:14:18;;;;;;;6.07;4.13;;;;;;;10.53;59.68;101551.47;4954331;28;97142;-49
2023/04/21 05:16:43;;;;;;;4.13;3.70;;;;;;;10.59;59.52;101546.09;4954813;28;97029;-49
2023/04/21 05:19:09;;;;;;;12.10;3.67;;;;;;;10.62;59.44;101545.16;4951492;28;96797;-49
2023/04/21 05:21:34;;;;;;;4.53;3.70;;;;;;;10.63;59.40;101549.44;4953194;28;97275;-48
2023/04/21 05:23:59;;;;;;;5.40;4.03;;;;;;;10.62;59.68;101547.91;4953659;28;97284;-49
2023/04/21 05:26:26;;;;;;;6.83;4.23;;;;;;;10.64;59.41;101550.19;4953253;28;100136;-49
2023/04/21 05:28:55;;;;;;;5.83;3.90;;;;;;;10.62;59.64;101553.41;4954277;28;96807;-49
2023/04/21 05:31:24;;;;;;;13.80;4.60;;;;;;;10.62;59.91;101547.91;4953659;28;98886;-48
2023/04/21 05:33:50;;;;;;;18.83;4.50;;;;;;;10.62;59.93;101547.91;4950732;28;97437;-49
2023/04/21 05:36:15;;;;;;;6.47;4.03;;;;;;;10.71;59.91;101547.84;4958552;28;97188;-49
2023/04/21 05:38:41;;;;;;;4.47;4.07;;;;;;;10.80;59.86;101552.50;4951806;28;97698;-49
2023/04/21 05:41:06;;;;;;;6.17;3.80;;;;;;;10.87;59.64;101552.13;4951994;28;97468;-49
2023/04/21 05:43:32;;;;;;;4.57;4.07;;;;;;;10.90;59.66;101554.69;4948713;28;97336;-49
2023/04/21 05:45:58;;;;;;;7.27;3.50;;;;;;;11.00;59.85;101549.88;4951347;28;97070;-49
2023/04/21 05:48:24;;;;;;;6.40;3.97;;;;;;;11.05;59.74;101554.75;4955305;28;96886;-48
2023/04/21 05:50:49;;;;;;;4.00;3.60;;;;;;;11.15;59.80;101556.94;4952123;28;97723;-49
2023/04/21 05:53:15;;;;;;;4.07;3.77;;;;;;;11.29;59.70;101560.94;4952083;28;97161;-49
2023/04/21 05:55:40;;;;;;;5.33;3.87;;;;;;;11.39;59.65;101564.34;4953562;28;96724;-49
2023/04/21 05:58:05;;;;;;;5.27;3.87;;;;;;;11.50;59.52;101561.75;4954922;28;97013;-48
2023/04/21 06:00:31;;;;;;;5.03;3.90;;;;;;;11.56;59.43;101560.63;4954937;28;107849;-48
2023/04/21 06:02:56;;;;;;;6.83;3.97;;;;;;;11.64;59.39;101558.97;4953853;28;97464;-49
2023/04/21 06:05:21;;;;;;;4.50;3.50;;;;;;;11.69;59.56;101563.88;4953098;28;97518;-48
2023/04/21 06:07:47;;;;;;;5.60;3.60;;;;;;;11.78;59.40;101561.00;4954956;28;97361;-48
2023/04/21 06:10:12;;;;;;;6.70;4.20;;;;;;;11.84;59.51;101552.78;4953609;28;96829;-49
2023/04/21 06:12:37;;;;;;;4.40;3.63;;;;;;;11.90;59.41;101562.69;4953986;28;103941;-49
2023/04/21 06:15:03;;;;;;;5.60;3.90;;;;;;;12.02;59.29;101553.34;4951601;28;97142;-48
2023/04/21 06:17:29;;;;;;;6.33;4.47;;;;;;;12.11;59.32;101557.97;4953806;28;97155;-48
2023/04/21 06:19:54;;;;;;;5.43;4.00;;;;;;;12.24;59.50;101549.34;4953388;28;97087;-49
2023/04/21 06:22:23;;;;;;;4.63;3.83;;;;;;;12.36;59.24;101553.78;4952058;28;97418;-49
2023/04/21 06:24:48;;;;;;;5.30;4.17;;;;;;;12.45;59.06;101551.63;4953153;28;97501;-49
2023/04/21 06:27:14;;;;;;;4.10;3.73;;;;;;;12.53;59.07;101547.25;4955457;28;96963;-49
2023/04/21 06:29:43;;;;;;;4.67;3.50;;;;;;;12.63;58.84;101543.09;4948373;28;97356;-49
2023/04/21 06:32:09;;;;;;;5.27;4.27;;;;;;;12.73;59.11;101541.69;4950023;28;96791;-48
2023/04/21 06:34:35;;;;;;;5.07;4.53;;;;;;;12.85;58.90;101542.56;4952227;28;96913;-49
2023/04/21 06:37:01;;;;;;;4.70;4.20;;;;;;;12.99;58.62;101541.72;4953557;28;96917;-49
2023/04/21 06:39:26;;;;;;;6.93;4.47;;;;;;;13.07;58.51;101540.06;4951501;28;96853;-49
2023/04/21 06:41:51;;;;;;;6.90;4.77;;;;;;;13.14;58.39;101539.63;4951257;28;97344;-48
2023/04/21 06:44:17;;;;;;;6.07;4.10;;;;;;;13.25;58.44;101539.72;4958062;28;97205;-49
2023/04/21 06:46:42;;;;;;;12.80;4.43;;;;;;;13.35;58.42;101552.13;4952324;28;97181;-49
2023/04/21 06:49:08;;;;;;;5.60;4.10;;;;;;;13.46;58.11;101535.63;4950647;28;96990;-49
2023/04/21 06:51:34;;;;;;;8.83;4.53;;;;;;;13.56;58.00;101529.94;4951954;28;97456;-49
2023/04/21 06:54:00;;;;;;;4.80;4.40;;;;;;;13.67;57.88;101525.25;4952014;28;97339;-49
2023/04/21 06:56:26;;;;;;;6.43;5.00;;;;;;;13.80;57.78;101522.06;4953930;28;97186;-49
2023/04/21 06:58:52;;;;;;;5.97;4.83;;;;;;;13.92;57.28;101531.91;4953857;28;97298;-49
2023/04/21 07:01:17;;;;;;;5.20;4.00;;;;;;;14.05;57.28;101523.94;4952580;28;97161;-49
2023/04/21 07:03:42;;;;;;;7.23;4.90;;;;;;;14.18;57.34;101518.72;4953457;28;97031;-49
2023/04/21 07:06:08;;;;;;;5.87;3.73;;;;;;;14.30;57.04;101520.34;4952238;28;97141;-49
2023/04/21 07:08:33;;;;;;;5.90;4.17;;;;;;;14.41;57.00;101512.09;4953824;28;97432;-49
2023/04/21 07:10:58;;;;;;;10.07;4.87;;;;;;;14.50;56.94;101516.66;4954178;28;96999;-49
2023/04/21 07:13:24;;;;;;;7.87;4.60;;;;;;;14.59;56.58;101510.88;4954509;28;97429;-49
2023/04/21 07:15:49;;;;;;;5.80;3.77;;;;;;;14.69;56.49;101504.63;4951594;28;97154;-49
2023/04/21 07:18:15;;;;;;;6.70;4.50;;;;;;;14.80;56.00;101506.66;4951671;28;97427;-49
2023/04/21 07:20:40;;;;;;;8.90;4.57;;;;;;;14.92;55.97;101508.16;4951521;28;97077;-49
2023/04/21 07:23:05;;;;;;;7.73;4.30;;;;;;;15.03;55.89;101499.88;4955553;28;97411;-49
2023/04/21 07:25:31;;;;;;;8.63;4.57;;;;;;;15.13;55.92;101503.16;4953855;28;97044;-49
2023/04/21 07:27:56;;;;;;;9.80;4.63;;;;;;;15.23;55.63;101501.66;4952467;28;96789;-49
2023/04/21 07:30:22;;;;;;;5.47;4.60;;;;;;;15.37;55.54;101504.19;4954981;28;97028;-49
2023/04/21 07:32:47;;;;;;;7.70;4.00;;;;;;;15.52;55.47;101503.94;4954942;28;97137;-49
2023/04/21 07:35:12;;;;;;;4.87;3.83;;;;;;;15.66;55.24;101500.16;4956177;28;96951;-49
2023/04/21 07:37:39;;;;;;;5.50;4.53;;;;;;;15.77;55.01;101503.66;4951757;28;97719;-49
2023/04/21 07:40:06;;;;;;;6.00;4.43;;;;;;;15.96;54.93;101516.97;4954265;28;97192;-49
2023/04/21 07:42:31;;;;;;;6.33;3.93;;;;;;;16.11;54.70;101500.78;4957147;28;97049;-49
2023/04/21 07:44:56;;;;;;;4.50;4.10;;;;;;;16.27;54.31;101497.94;4953822;28;103443;-49
2023/04/21 07:47:22;;;;;;;4.43;4.03;;;;;;;16.45;54.08;101494.56;4953927;28;97614;-49
2023/04/21 07:49:47;;;;;;;7.07;4.63;;;;;;;16.57;53.67;101492.53;4958889;28;97625;-49
2023/04/21 07:52:12;;;;;;;4.80;4.00;;;;;;;16.72;53.07;101483.84;4954726;28;97051;-49
2023/04/21 07:54:38;;;;;;;8.10;5.50;;;;;;;16.80;52.63;101496.69;4953511;28;97502;-49
2023/04/21 07:57:03;;;;;;;11.10;5.03;;;;;;;16.85;52.96;101489.56;4955033;28;97397;-49
2023/04/21 07:59:28;;;;;;;8.57;4.50;;;;;;;16.91;52.69;101482.72;4962214;28;99367;-49
2023/04/21 08:01:54;;;;;;;6.07;4.40;;;;;;;17.06;52.82;101491.44;4955372;28;97069;-49
2023/04/21 08:04:19;;;;;;;9.17;4.93;;;;;;;17.18;52.82;101489.34;4952490;28;103888;-49
2023/04/21 08:06:44;;;;;;;5.37;4.20;;;;;;;17.30;52.50;101476.84;4953967;28;97462;-49
2023/04/21 08:09:10;;;;;;;8.03;4.20;;;;;;;17.45;52.16;101487.59;4955273;28;97026;-49
2023/04/21 08:11:36;;;;;;;5.97;4.30;;;;;;;17.55;51.69;101483.22;4957695;28;97094;-49
2023/04/21 08:14:02;;;;;;;6.00;4.30;;;;;;;17.67;51.82;101485.38;4955184;28;97112;-49
2023/04/21 08:16:28;;;;;;;5.63;4.10;;;;;;;17.80;51.72;101485.47;4956683;28;97326;-49
2023/04/21 08:18:53;;;;;;;6.60;4.90;;;;;;;17.89;51.16;101484.38;4953105;28;97235;-49
2023/04/21 08:21:19;;;;;;;8.50;4.70;;;;;;;18.00;51.26;101486.31;4957273;28;96743;-49
2023/04/21 08:23:44;;;;;;;6.17;4.30;;;;;;;18.12;50.92;101482.09;4955605;28;97412;-49
2023/04/21 08:26:09;;;;;;;11.30;4.60;;;;;;;18.26;50.80;101467.72;4957194;28;103899;-50
2023/04/21 08:28:35;;;;;;;4.77;4.27;;;;;;;18.41;49.96;101481.97;4957156;28;97237;-49
2023/04/21 08:31:01;;;;;;;5.33;3.83;;;;;;;18.50;49.97;101459.31;4952123;28;96905;-49
2023/04/21 08:33:26;;;;;;;5.80;3.80;;;;;;;18.60;50.04;101471.59;4954898;28;97496;-49
2023/04/21 08:35:52;;;;;;;6.03;3.70;;;;;;;18.70;49.69;101460.81;4955190;28;97536;-49
2023/04/21 08:38:17;;;;;;;7.90;4.40;;;;;;;18.89;49.65;101453.19;4954076;28;97404;-49
2023/04/21 08:40:43;;;;;;;4.43;3.50;;;;;;;19.09;49.35;101458.16;4955860;28;97435;-49
2023/04/21 08:43:09;;;;;;;5.10;3.90;;;;;;;19.24;49.22;101455.63;4951957;28;96820;-50
2023/04/21 08:45:35;;;;;;;9.43;4.70;;;;;;;19.41;48.99;101464.50;4954000;28;97326;-49
2023/04/21 08:48:03;;;;;;;4.73;3.40;;;;;;;19.59;48.81;101462.16;4957013;28;97174;-49
2023/04/21 08:50:30;;;;;;;6.20;3.77;;;;;;;19.71;48.03;101455.81;4953158;28;97300;-49
2023/04/21 08:52:56;;;;;;;4.10;3.50;;;;;;;19.87;48.30;101460.34;4953828;28;96801;-50
2023/04/21 08:55:29;;;;;;;3.50;3.20;;;;;;;19.96;45.47;101459.16;4952346;28;97572;-50
2023/04/21 08:57:55;;;;;;;7.13;3.10;;;;;;;20.11;47.78;101459.34;4956438;28;97138;-49
2023/04/21 09:00:21;;;;;;;8.03;3.80;;;;;;;20.28;47.02;101468.16;4953945;28;98304;-50
2023/04/21 09:02:58;;;;;;;8.77;3.60;;;;;;;20.50;46.19;101464.13;4953418;28;97236;-50
2023/04/21 09:05:28;;;;;;;4.67;3.80;;;;;;;20.68;47.05;101466.00;4954828;28;97143;-49
2023/04/21 09:08:08;;;;;;;5.90;3.87;;;;;;;20.87;45.66;101453.34;4958604;28;97256;-50
2023/04/21 09:10:41;;;;;;;5.90;4.30;;;;;;;21.02;45.55;101441.53;4953165;28;97208;-49
2023/04/21 09:13:07;;;;;;;6.83;4.17;;;;;;;21.05;45.51;101462.88;4954079;28;97079;-50
2023/04/21 09:15:41;;;;;;;4.60;3.60;;;;;;;21.16;44.29;101464.63;4956258;28;97819;-50
2023/04/21 09:18:14;;;;;;;3.20;2.90;;;;;;;21.28;44.27;101452.59;4951929;28;100248;-49
2023/04/21 09:20:42;;;;;;;4.53;3.17;;;;;;;21.38;45.34;101458.47;4954182;28;97141;-50
2023/04/21 09:23:08;;;;;;;8.13;3.70;;;;;;;21.56;45.24;101451.84;4956403;28;97359;-49
2023/04/21 09:25:34;;;;;;;4.77;3.93;;;;;;;21.78;44.84;101450.50;4956491;28;97166;-50
2023/04/21 09:28:00;;;;;;;6.77;3.80;;;;;;;21.90;44.69;101449.69;4954458;28;97192;-50
2023/04/21 09:30:25;;;;;;;3.83;3.30;;;;;;;22.05;44.26;101457.41;4955579;28;96744;-50
2023/04/21 09:32:56;;;;;;;3.30;3.00;;;;;;;22.14;43.34;101463.25;4954938;28;97279;-49
2023/04/21 09:35:22;;;;;;;7.77;3.40;;;;;;;22.17;43.65;101448.13;4953039;28;97082;-49
2023/04/21 09:37:47;;;;;;;4.43;3.40;;;;;;;22.22;43.66;101444.41;4952145;28;97845;-49
2023/04/21 09:40:16;;;;;;;9.63;3.90;;;;;;;22.10;42.79;101448.09;4952369;28;97158;-49
2023/04/21 09:42:42;;;;;;;4.13;3.00;;;;;;;22.15;43.30;101449.97;4951356;28;96799;-49
2023/04/21 09:45:11;;;;;;;3.43;3.07;;;;;;;22.35;43.06;101444.25;4952939;28;97673;-50
2023/04/21 09:47:40;;;;;;;5.13;3.63;;;;;;;22.42;41.85;101436.41;4952859;28;97657;-49
2023/04/21 09:50:07;;;;;;;7.50;3.73;;;;;;;22.48;42.12;101432.13;4954581;28;96805;-49
2023/04/21 09:52:33;;;;;;;4.10;3.23;;;;;;;22.40;41.34;101431.38;4952309;28;97378;-49
2023/04/21 09:55:03;;;;;;;5.03;3.43;;;;;;;22.46;41.93;101431.19;4955033;28;97011;-49
2023/04/21 09:57:31;;;;;;;5.13;3.40;;;;;;;22.58;41.39;101435.16;4956264;28;97481;-50
2023/04/21 10:00:08;;;;;;;3.43;3.13;;;;;;;22.61;39.74;101415.19;4953926;28;96775;-50
2023/04/21 10:02:35;;;;;;;5.27;2.90;;;;;;;22.72;41.37;101416.88;4954142;28;97143;-49
2023/04/21 10:05:03;;;;;;;4.93;2.70;;;;;;;22.77;40.86;101415.97;4954103;28;98000;-50
2023/04/21 10:07:29;;;;;;;5.43;3.13;;;;;;;22.86;41.13;101410.56;4950583;28;97246;-50
2023/04/21 10:09:56;;;;;;;6.60;3.47;;;;;;;22.99;40.86;101412.41;4952135;28;96940;-50
2023/04/21 10:12:23;;;;;;;3.07;2.57;;;;;;;22.99;40.24;101410.38;4955878;28;96967;-50
2023/04/21 10:14:55;;;;;;;4.00;3.60;;;;;;;23.02;39.36;101411.31;4955019;28;97418;-50
2023/04/21 10:17:26;;;;;;;2.80;2.60;;;;;;;23.04;39.75;101395.38;4948215;28;100934;-49
2023/04/21 10:19:55;;;;;;;4.70;3.63;;;;;;;23.00;39.23;101405.47;4952255;28;97537;-49
2023/04/21 10:22:35;;;;;;;3.40;3.10;;;;;;;23.02;38.06;101400.81;4955180;28;97140;-50
2023/04/21 10:25:03;;;;;;;3.70;2.70;;;;;;;23.10;39.70;101398.00;4954359;28;97021;-49
2023/04/21 10:27:34;;;;;;;5.60;3.93;;;;;;;23.09;37.63;101393.69;4953784;28;97327;-50
2023/04/21 10:30:00;;;;;;;5.07;3.60;;;;;;;23.10;38.88;101390.34;4956130;28;96920;-50
2023/04/21 10:32:41;;;;;;;3.27;2.97;;;;;;;23.21;36.98;101380.78;4953049;28;97117;-49
2023/04/21 10:35:12;;;;;;;4.07;3.37;;;;;;;23.31;37.25;101378.13;4951700;28;97511;-49
2023/04/21 10:37:41;;;;;;;5.33;2.77;;;;;;;23.42;38.37;101381.31;4953866;28;97278;-50
2023/04/21 10:40:26;;;;;;;3.90;3.13;;;;;;;23.46;37.99;101369.72;4955379;28;97084;-49
2023/04/21 10:42:52;;;;;;;5.77;3.33;;;;;;;23.43;38.01;101388.44;4950742;28;96940;-50
2023/04/21 10:45:17;;;;;;;6.30;3.10;;;;;;;23.55;37.65;101377.53;4952571;28;98622;-50
2023/04/21 10:47:47;;;;;;;3.07;2.87;;;;;;;23.69;38.32;101373.94;4954728;28;97130;-50
2023/04/21 10:50:24;;;;;;;3.27;2.97;;;;;;;23.79;38.01;101380.47;4952383;28;97097;-50
2023/04/21 10:53:10;;;;;;;6.27;3.50;;;;;;;23.77;35.75;101366.22;4954741;28;97089;-50
2023/04/21 10:55:35;;;;;;;5.00;3.23;;;;;;;23.76;36.84;101359.09;4953525;28;97449;-50
2023/04/21 10:58:06;;;;;;;3.63;3.17;;;;;;;23.74;36.91;101355.38;4959612;28;97258;-50
2023/04/21 11:00:32;;;;;;;2.90;2.57;;;;;;;23.92;37.10;101362.59;4956799;28;97251;-50
2023/04/21 11:02:59;;;;;;;4.30;3.30;;;;;;;24.11;36.41;101342.50;4954898;28;97194;-50
2023/04/21 11:05:39;;;;;;;5.70;3.07;;;;;;;24.19;34.32;101349.56;4954354;28;97583;-49
2023/04/21 11:08:10;;;;;;;2.93;2.63;;;;;;;24.35;35.60;101336.16;4956940;28;97150;-50
2023/04/21 11:10:41;;;;;;;2.67;2.47;;;;;;;24.62;30.45;101333.53;4956828;28;97375;-50
2023/04/21 11:13:07;;;;;;;3.00;2.50;;;;;;;24.84;35.29;101338.22;4953454;28;97390;-49
2023/04/21 11:15:32;;;;;;;4.83;2.80;;;;;;;25.02;34.41;101334.88;4955597;28;97853;-50
2023/04/21 11:17:58;;;;;;;3.13;2.83;;;;;;;25.12;34.61;101321.63;4954291;28;97294;-49
2023/04/21 11:20:23;;;;;;;7.30;2.63;;;;;;;25.23;34.45;101326.00;4958861;28;97378;-49